Quick Links (Output Below):   Max & Min Temps   /   Climate Reports   /   Zone Forecasts
River Forecasts   /   Forestry Forecasts   /   Aviation Forecasts   /   Radars   /   Features

Terminal Aerodrome Forecast (Fayetteville)

Pick a Site:
Arkadelphia | El Dorado | Fayetteville | Fort Smith | Harrison | Highfill | Hot Springs | Jonesboro
Little Rock | Monticello | Mountain Home | Pine Bluff | Texarkana
 Forecast 

KFYV 260520Z 2606/2706 17003KT 4SM BR SKC
      TEMPO 2606/2610 2SM BR
     FM261000 18003KT 2SM BR SKC
      TEMPO 2610/2613 1SM BR SCT002
     FM261400 18006KT P6SM SKC
     FM261900 19013G21KT P6SM SKC
     FM270100 18008KT P6SM SKC=


 Latest METARs (Observations) 
How to Decode METARs
06Z KFYV 260553Z AUTO 00000KT 1 1/2SM BR CLR 13/13 A3003 RMK AO2 VIS
         1/2V4 SLP160 T01280128 10200 20122 402780122 56007
         
05Z KFYV 260453Z AUTO 00000KT 1 1/2SM BR CLR 14/14 A3005 RMK AO2
         SLP165 T01440144
         
04Z KFYV 260353Z AUTO 17003KT 5SM BR CLR 15/15 A3006 RMK AO2 SLP169
         T01500150
         
03Z KFYV 260253Z 00000KT 8SM CLR 16/16 A3006 RMK AO2 SLP171 T01610161
         51003
         
02Z KFYV 260153Z AUTO 15003KT 10SM CLR 18/17 A3006 RMK AO2 SLP171
         T01780172
         
01Z KFYV 260053Z AUTO 19004KT 10SM CLR 18/18 A3006 RMK AO2 SLP172
         T01830178
         
00Z KFYV 252353Z AUTO 00000KT 10SM CLR 20/18 A3005 RMK AO2 SLP168
         T02000178 10278 20200 56001
         
***** Today's Observations (Above) *****


23Z KFYV 252253Z AUTO 24004KT 10SM CLR 26/18 A3005 RMK AO2 SLP165
         T02560178
         
22Z KFYV 252153Z AUTO 23006KT 10SM CLR 27/18 A3005 RMK AO2 SLP166
         T02720178
         
21Z KFYV 252053Z AUTO 23008KT 10SM CLR 28/17 A3006 RMK AO2 SLP167
         T02780172 56013
         
***** Yesterday's Observations (Above) *****


Back to Main Page
http://www.srh.noaa.gov/lzk/qfcst.php

USA.gov is the U.S. government's official web portal to all federal, state and local government web resources and services.